Weather at Francisco Airport

Public forecast

Using degrees Celsius for public forecast. Weather courtesy of forecast.io.

Closest aviation weather report (METAR) to Francisco Airport

Closest report is Ignacio Agramonte International Airport, 39.8 nm (73.8 km) NNW.

2023/02/01 18:50 (retrieved 50 minutes ago)

MUCM 011850Z 04015KT 9000 SCT020 31/17 Q1019

Closest aviation forecast (TAF) to Francisco Airport

Closest forecast is Ignacio Agramonte International Airport, 39.8 nm (73.8 km) NNW.

2023/02/01 18:07 (retrieved 2 hours ago)

TAF MUCM 011700Z 0118/0218 05013KT 9000 SCT020 TEMPO 0118/0121 BKN020 BECMG 0202/0205 06005KT BECMG 0212/0215 08011KT